Date,TemperatureHighF,TemperatureAvgF,TemperatureLowF,DewpointHighF,DewpointAvgF,DewpointLowF,HumidityHigh,HumidityAvg,HumidityLow,PressureMaxIn,PressureMinIn,WindSpeedMaxMPH,WindSpeedAvgMPH,GustSpeedMaxMPH,PrecipitationSumIn
2013-1-31,54,40,14,29,25,10,84,58,38,30.35,30.27,3,2,8,0.00
2013-2-1,26,26,26,18,18,18,72,72,72,30.31,30.31,2,2,4,0.00
2013-2-2,48,32,17,28,22,12,79,66,44,30.38,30.26,7,2,9,0.00
2013-2-3,54,32,12,29,19,8,84,63,31,30.25,30.15,11,3,14,0.00
2013-2-4,64,36,9,25,14,4,81,47,14,30.21,30.02,5,2,7,0.00
2013-2-5,63,42,17,19,12,5,65,35,11,30.04,29.84,14,4,21,0.00
2013-2-6,54,34,13,20,10,2,68,39,14,30.13,30.00,8,3,13,0.00
2013-2-7,56,39,22,16,6,-7,46,29,8,30.01,29.75,25,8,33,0.00
2013-2-8,37,33,27,21,15,10,58,48,36,29.86,29.78,15,10,24,0.00
2013-2-9,41,31,19,17,10,3,58,42,25,30.03,29.87,14,7,20,0.00
2013-2-10,43,32,19,19,10,4,56,41,22,30.09,29.99,15,7,22,0.00
2013-2-11,43,27,5,13,4,-3,70,40,18,30.24,30.10,6,3,11,0.00
2013-2-12,50,32,8,13,7,-4,62,37,20,30.34,30.25,7,2,10,0.00
2013-2-13,52,35,9,18,12,-3,59,41,24,30.38,30.25,9,3,14,0.00
2013-2-14,54,35,13,21,15,1,67,47,28,30.41,30.28,8,4,15,0.00
2013-2-15,59,34,10,23,14,3,73,47,20,30.47,30.30,4,2,8,0.00
2013-2-16,61,37,9,17,8,-1,63,35,12,30.34,30.01,5,2,9,0.00
2013-2-17,51,30,9,19,7,-4,56,39,21,30.03,29.96,14,5,21,0.00
2013-2-18,55,31,7,11,4,-8,53,34,17,30.04,29.70,8,2,12,0.00
2013-2-19,46,36,24,18,11,4,48,35,25,29.70,29.47,14,5,21,0.00
2013-2-20,45,36,25,17,10,-1,59,36,16,29.90,29.60,17,10,24,0.00
2013-2-21,45,33,14,9,4,-2,50,30,18,30.07,29.89,10,5,17,0.00
2013-2-22,51,36,14,15,8,-4,55,32,19,30.19,29.98,8,3,11,0.00
2013-2-23,48,35,16,29,12,4,76,40,26,30.20,29.83,26,11,37,0.00
2013-2-24,43,30,9,12,4,-1,68,37,17,30.31,30.20,5,2,10,0.00
2013-2-25,54,31,5,9,1,-10,56,32,14,30.22,30.05,19,7,28,0.00
2013-2-26,43,29,14,9,0,-7,48,30,16,30.28,30.13,8,3,14,0.00
2013-2-27,58,30,6,5,-4,-12,50,27,8,30.37,30.23,8,2,16,0.00
2013-5-10,-200,0,200,-100,-100,-100,67,67,67,30.20,30.20,1,1,2,0.00
2013-5-14,85,77,67,28,22,19,23,13,9,30.00,29.87,20,8,31,0.00
2013-5-15,85,76,65,29,14,7,24,11,6,29.95,29.86,18,10,29,0.00
2013-5-17,72,65,54,25,15,8,22,14,10,30.00,29.83,16,10,24,0.00
2013-5-18,75,59,40,31,22,16,43,25,11,30.08,29.96,16,7,22,0.00
2013-5-19,70,60,51,35,25,10,52,30,11,30.20,30.07,17,10,22,0.00
2013-6-5,92,81,69,18,14,10,13,8,6,30.07,29.93,10,5,17,0.00
2013-6-6,98,80,53,24,13,2,18,9,3,30.02,29.87,11,4,17,0.00
2013-6-7,98,82,59,25,18,10,25,11,4,30.01,29.86,11,5,18,0.00
2013-6-8,97,84,65,33,28,13,26,14,8,30.02,29.87,10,6,18,0.00
2013-6-9,102,80,60,35,21,14,22,12,5,29.95,29.73,24,5,34,0.00
2013-6-10,90,76,57,37,30,14,32,20,6,29.82,29.69,30,9,41,0.00
2013-6-11,93,71,52,39,32,18,55,29,7,29.94,29.84,16,5,27,0.00
2013-6-12,91,74,57,30,23,14,27,17,6,29.95,29.82,19,7,27,0.00
2013-6-13,82,68,58,24,10,-28,22,13,1,30.06,29.92,14,8,20,0.00
2013-6-14,78,64,50,23,18,10,34,18,9,30.16,29.91,15,7,22,0.00
2013-6-15,81,63,42,20,10,4,20,13,5,29.96,29.84,7,4,11,0.00
2013-6-16,88,75,57,21,15,4,20,11,4,30.05,29.92,12,7,21,0.00
2013-6-17,88,76,57,21,19,13,23,13,6,30.09,29.88,20,7,26,0.00
2013-6-18,88,68,46,24,18,12,30,16,6,29.94,29.80,30,11,41,0.00
2013-6-19,73,63,50,21,14,11,27,16,9,29.96,29.84,12,8,24,0.00
2013-6-20,67,56,47,23,21,16,34,26,14,30.02,29.96,11,6,16,0.00
2013-6-22,79,66,56,24,22,14,24,19,9,30.06,30.04,8,6,12,0.00
2013-6-23,84,76,69,33,27,22,23,17,10,0.00,40.00,21,10,27,0.00
2013-6-24,72,63,50,51,36,25,80,39,20,29.89,29.77,15,4,20,0.00
2013-6-25,54,54,53,50,49,49,86,85,84,29.89,29.88,3,2,4,0.00
2013-6-26,94,74,51,39,34,29,57,29,10,30.07,29.96,13,6,20,0.00
2013-6-27,97,72,59,34,31,28,32,24,9,30.18,30.05,11,4,15,0.00
2013-6-28,96,83,71,30,28,25,21,14,8,30.14,30.01,20,6,28,0.00
2013-6-29,102,87,69,38,34,29,30,18,9,30.05,30.01,10,5,19,0.00
2013-6-30,92,92,92,32,31,30,12,12,11,0.00,40.00,7,6,14,0.00
2013-7-1,90,83,80,39,36,34,22,19,14,30.06,30.06,10,5,17,0.00
2013-7-2,104,92,75,41,35,31,25,15,8,30.10,30.01,14,6,22,0.00
2013-7-3,97,84,69,48,44,34,44,26,13,30.14,30.07,14,6,20,0.00
2013-7-4,91,81,65,54,46,43,69,31,19,29.99,29.98,19,8,27,0.00
2013-7-5,96,74,56,54,48,37,75,48,13,0.00,40.00,5,2,9,0.00
2013-7-6,89,86,82,27,26,25,13,11,10,29.81,29.74,11,10,17,0.00
2013-7-7,96,91,82,26,23,22,13,9,7,0.00,40.00,11,10,17,0.00
2013-7-9,97,84,71,29,24,19,18,12,6,30.12,30.03,11,7,15,0.00
2013-7-10,97,91,75,30,25,19,15,10,7,30.08,29.98,14,10,23,0.00
2013-7-11,90,80,72,52,41,30,47,27,13,29.99,29.98,10,4,15,0.00
2013-7-12,93,72,59,45,40,28,54,35,10,0.00,40.00,12,5,17,0.00
2013-7-13,94,94,94,17,17,17,6,6,6,0.00,40.00,4,4,10,0.00
2013-7-14,95,90,83,27,19,17,13,8,6,0.00,40.00,10,7,24,0.00
2013-7-15,95,81,70,34,27,25,20,15,8,29.95,29.94,10,4,14,0.00
2013-7-16,97,83,71,34,28,18,25,14,7,29.96,29.85,13,5,22,0.00
2013-7-17,71,67,65,19,19,19,17,16,14,30.07,30.04,5,4,9,0.00
2013-7-18,92,90,86,15,13,12,7,6,5,30.07,30.07,3,3,8,0.00
2013-7-19,101,100,99,18,18,16,5,5,5,0.00,40.00,9,6,13,0.00
2013-7-20,103,90,67,25,22,19,20,10,5,29.93,29.88,6,3,11,0.00
2013-7-21,90,88,84,33,31,30,16,13,12,29.88,29.87,9,7,13,0.00
2013-7-22,102,85,67,39,33,22,29,17,6,29.97,29.88,19,6,26,0.00
2013-7-23,89,80,71,58,44,36,56,30,16,30.07,29.97,14,6,22,0.00
2013-7-24,95,78,65,53,47,34,60,39,12,30.06,30.04,12,5,20,0.00
2013-7-25,97,90,83,41,38,34,23,17,11,30.10,30.10,12,10,21,0.00
2013-7-26,97,74,62,59,48,35,66,44,12,30.16,30.01,7,4,15,0.00
2013-7-27,94,79,59,56,45,34,79,39,12,30.12,30.08,13,4,21,0.00
2013-7-28,93,76,63,45,41,33,48,30,12,29.92,29.86,10,4,22,0.00
2013-7-29,94,78,64,43,35,27,44,24,9,30.03,29.91,11,7,16,0.00
2013-7-30,86,77,67,28,27,25,23,16,11,30.07,30.02,10,6,15,0.00
2013-7-31,93,80,74,26,25,23,16,13,9,30.10,29.95,13,6,19,0.00
2013-8-1,86,74,59,27,18,7,29,14,5,30.01,29.92,15,7,24,0.00
2013-8-2,86,72,54,19,15,13,19,12,7,30.01,29.91,8,4,14,0.00
2013-8-3,89,78,59,21,19,17,20,12,7,30.01,30.01,4,4,8,0.00
2013-8-4,88,75,68,27,25,22,22,17,9,29.98,29.98,8,5,12,0.00
2013-8-5,81,78,72,23,23,22,16,13,11,30.00,29.96,7,5,12,0.00
2013-11-4,47,40,23,16,13,10,62,35,22,30.15,30.02,12,6,17,0.00
2013-11-5,50,38,28,18,14,12,54,38,22,30.29,30.21,4,2,9,0.00
2013-11-6,61,50,33,22,18,13,59,32,15,30.37,30.25,6,3,9,0.00
2013-11-7,66,47,32,26,20,17,64,37,16,30.22,30.21,8,4,12,0.00
2013-11-8,67,45,24,20,16,14,65,37,13,30.10,30.10,4,2,6,0.00
2013-11-9,65,49,31,23,21,18,62,36,16,30.12,30.12,8,3,11,0.00
2013-11-15,48,41,29,29,23,16,74,52,32,29.89,29.72,13,5,23,0.00
2013-11-16,58,44,29,23,20,16,65,42,21,29.84,29.65,6,4,9,0.00
2013-11-17,65,45,23,22,19,14,71,41,17,30.02,29.87,8,3,11,0.00
2013-11-18,59,48,26,24,22,15,62,38,25,30.05,29.95,6,3,9,0.00
2013-11-19,58,46,38,36,25,21,66,44,29,29.98,29.93,3,2,5,0.00
2013-11-20,54,50,43,40,38,36,77,64,55,0.00,40.00,6,2,8,0.00
2013-11-21,28,27,26,21,20,18,81,74,66,30.25,30.15,10,5,13,0.00
2013-11-22,37,30,23,20,16,13,78,58,41,30.33,30.20,7,2,10,0.00
2013-11-23,47,34,22,27,20,14,84,60,28,30.20,30.11,6,2,9,0.00
2013-11-24,46,32,20,24,21,17,86,67,33,30.31,30.14,7,2,10,0.00
2013-11-25,50,34,19,27,23,16,86,66,32,30.40,30.32,4,2,7,0.00
2013-11-30,52,38,22,31,20,-100,87,58,39,30.32,30.23,5,2,8,0.00
2013-12-1,57,43,32,30,25,23,74,53,27,30.39,30.27,6,2,8,0.00
2013-12-2,66,46,30,26,21,11,71,44,13,30.25,29.77,14,5,20,0.00
2013-12-3,51,32,17,31,22,11,88,70,38,29.82,29.71,24,9,31,0.00
2013-12-4,27,19,14,17,11,7,82,71,54,30.02,29.84,9,2,12,0.00
2013-12-5,29,20,14,13,9,6,77,64,39,30.05,29.98,6,3,9,0.00
2013-12-6,30,22,10,16,10,2,72,59,42,30.03,29.70,15,6,19,0.00
2013-12-7,31,24,16,23,13,7,80,62,43,30.08,29.63,16,8,23,0.00
2013-12-8,21,9,-1,9,1,-6,78,69,58,30.37,30.09,6,2,9,0.00
2013-12-9,22,6,-7,9,-2,-12,78,72,57,30.53,30.37,7,2,10,0.00
2013-12-10,23,10,-6,10,2,-11,80,70,55,30.47,30.31,6,2,9,0.00
2013-12-11,28,12,0,11,3,-5,80,70,46,30.44,30.35,5,2,8,0.00
2013-12-12,28,12,-1,13,4,-7,79,70,51,30.38,30.21,5,2,8,0.00
2013-12-13,31,18,2,17,9,-3,81,70,54,30.48,30.23,7,2,9,0.00
2013-12-14,35,18,3,19,10,-2,82,72,52,30.59,30.48,4,1,7,0.00
2013-12-15,38,22,7,21,14,3,83,70,49,30.54,30.41,4,2,5,0.00
2013-12-16,39,23,6,22,14,2,83,71,50,30.52,30.40,5,2,7,0.00
2013-12-17,32,29,20,21,19,14,76,68,63,30.39,30.26,2,1,3,0.00
2013-12-18,35,28,17,24,21,13,84,77,62,30.18,29.66,4,2,7,0.00
2013-12-19,35,29,15,27,19,9,83,66,48,30.02,29.66,19,8,27,0.00
2013-12-20,31,24,9,18,15,4,79,69,58,30.03,29.95,7,4,10,0.00
2013-12-21,46,30,21,29,20,16,82,67,50,30.12,29.93,8,3,13,0.00
2013-12-22,52,38,24,30,26,20,85,64,37,30.39,30.27,3,1,5,0.00
2013-12-23,54,35,20,31,26,17,88,72,40,30.45,30.36,5,2,8,0.00
2013-12-24,48,35,23,32,26,20,87,71,51,30.49,30.39,8,2,11,0.00
2013-12-25,45,31,17,30,24,15,89,75,54,30.53,30.40,8,2,11,0.00
2013-12-26,47,32,20,31,25,17,88,74,54,30.48,30.37,3,2,5,0.00
2013-12-27,38,30,20,29,24,17,90,80,68,30.38,30.20,8,3,10,0.00
2013-12-28,33,27,22,21,19,18,83,74,61,30.30,30.25,4,2,6,0.00
2013-12-29,39,32,23,24,22,19,85,68,54,30.37,30.28,5,3,7,0.00
2013-12-30,42,31,22,25,22,17,84,69,48,30.35,30.23,3,2,5,0.00
2013-12-31,52,39,19,24,22,16,87,54,31,30.31,30.20,4,2,5,0.00
2014-1-1,50,42,25,26,23,20,82,49,34,30.31,30.24,8,4,11,0.00
2014-1-2,51,39,25,26,24,20,84,57,34,30.30,30.17,5,2,9,0.00